Time;durP1;ratioP1;P1;durP2;ratioP2;P2;SDS_P1;SDS_P2;PMS_P1;PMS_P2;Temp;Humidity;BMP_temperature;BMP_pressure;BME280_temperature;BME280_humidity;BME280_pressure;Samples;Min_cycle;Max_cycle;Signal;HPM_P1;HPM_P2
2022/08/10 00:01:00;;;;;;;0.1;0.1;;;;;;;20.4;100.0;102410;;;;
2022/08/10 00:02:00;;;;;;;0.1;0.1;;;;;;;20.4;100.0;102410;;;;
2022/08/10 00:03:00;;;;;;;0.1;0.1;;;;;;;20.3;100.0;102410;;;;
2022/08/10 00:04:00;;;;;;;0.1;0.1;;;;;;;20.3;100.0;102410;;;;
2022/08/10 00:05:00;;;;;;;0.1;0.1;;;;;;;20.3;100.0;102410;;;;
2022/08/10 00:06:00;;;;;;;0.1;0.1;;;;;;;20.3;100.0;102410;;;;
2022/08/10 00:07:00;;;;;;;0.1;0.1;;;;;;;20.2;100.0;102420;;;;
2022/08/10 00:08:00;;;;;;;0.1;0.1;;;;;;;20.2;100.0;102420;;;;
2022/08/10 00:09:00;;;;;;;0.1;0.1;;;;;;;20.3;100.0;102410;;;;
2022/08/10 00:10:00;;;;;;;0.1;0.1;;;;;;;20.3;100.0;102410;;;;
2022/08/10 00:11:01;;;;;;;0.1;0.1;;;;;;;20.3;100.0;102410;;;;
2022/08/10 00:12:00;;;;;;;0.1;0.1;;;;;;;20.3;100.0;102410;;;;
2022/08/10 00:13:00;;;;;;;0.1;0.1;;;;;;;20.2;100.0;102410;;;;
2022/08/10 00:14:00;;;;;;;0.1;0.1;;;;;;;20.2;100.0;102410;;;;
2022/08/10 00:15:00;;;;;;;0.1;0.1;;;;;;;20.1;100.0;102410;;;;
2022/08/10 00:16:00;;;;;;;0.1;0.1;;;;;;;20.1;100.0;102410;;;;
2022/08/10 00:17:00;;;;;;;0.2;0.2;;;;;;;20.0;100.0;102410;;;;
2022/08/10 00:18:00;;;;;;;0.2;0.2;;;;;;;20.0;100.0;102410;;;;
2022/08/10 00:19:00;;;;;;;0.2;0.2;;;;;;;20.1;100.0;102410;;;;
2022/08/10 00:20:04;;;;;;;0.2;0.2;;;;;;;20.1;100.0;102410;;;;
2022/08/10 00:21:00;;;;;;;0.2;0.2;;;;;;;20.0;100.0;102400;;;;
2022/08/10 00:22:00;;;;;;;0.2;0.2;;;;;;;20.0;100.0;102400;;;;
2022/08/10 00:23:00;;;;;;;0.2;0.2;;;;;;;20.0;100.0;102400;;;;
2022/08/10 00:24:00;;;;;;;0.2;0.2;;;;;;;20.0;100.0;102400;;;;
2022/08/10 00:25:01;;;;;;;0.2;0.2;;;;;;;20.1;100.0;102400;;;;
2022/08/10 00:26:00;;;;;;;0.2;0.2;;;;;;;20.1;100.0;102400;;;;
2022/08/10 00:27:10;;;;;;;0.2;0.2;;;;;;;20.0;100.0;102400;;;;
2022/08/10 00:28:04;;;;;;;0.2;0.2;;;;;;;20.0;100.0;102400;;;;
2022/08/10 00:29:00;;;;;;;0.2;0.2;;;;;;;20.0;100.0;102400;;;;
2022/08/10 00:30:00;;;;;;;0.2;0.2;;;;;;;20.0;100.0;102400;;;;
2022/08/10 00:31:00;;;;;;;0.2;0.2;;;;;;;20.0;100.0;102400;;;;
2022/08/10 00:32:00;;;;;;;0.2;0.2;;;;;;;20.0;100.0;102400;;;;
2022/08/10 00:33:00;;;;;;;0.2;0.2;;;;;;;19.9;100.0;102400;;;;
2022/08/10 00:34:00;;;;;;;0.2;0.2;;;;;;;19.9;100.0;102400;;;;
2022/08/10 00:35:00;;;;;;;0.2;0.2;;;;;;;19.8;100.0;102390;;;;
2022/08/10 00:36:00;;;;;;;0.2;0.2;;;;;;;19.8;100.0;102390;;;;
2022/08/10 00:37:00;;;;;;;0.3;0.3;;;;;;;19.8;100.0;102390;;;;
2022/08/10 00:38:00;;;;;;;0.3;0.3;;;;;;;19.8;100.0;102390;;;;
2022/08/10 00:39:00;;;;;;;0.3;0.3;;;;;;;19.7;100.0;102400;;;;
2022/08/10 00:40:00;;;;;;;0.3;0.3;;;;;;;19.7;100.0;102400;;;;
2022/08/10 00:41:00;;;;;;;0.3;0.3;;;;;;;19.7;100.0;102400;;;;
2022/08/10 00:42:07;;;;;;;0.3;0.3;;;;;;;19.7;100.0;102400;;;;
2022/08/10 00:43:00;;;;;;;0.3;0.3;;;;;;;19.7;100.0;102390;;;;
2022/08/10 00:44:00;;;;;;;0.3;0.3;;;;;;;19.7;100.0;102390;;;;
2022/08/10 00:45:00;;;;;;;0.3;0.3;;;;;;;19.6;100.0;102390;;;;
2022/08/10 00:46:00;;;;;;;0.3;0.3;;;;;;;19.6;100.0;102390;;;;
2022/08/10 00:47:00;;;;;;;0.3;0.3;;;;;;;19.7;100.0;102390;;;;
2022/08/10 00:48:00;;;;;;;0.3;0.3;;;;;;;19.7;100.0;102390;;;;
2022/08/10 00:49:00;;;;;;;0.3;0.3;;;;;;;19.6;100.0;102390;;;;
2022/08/10 00:50:00;;;;;;;0.3;0.3;;;;;;;19.6;100.0;102390;;;;
2022/08/10 00:51:00;;;;;;;0.3;0.3;;;;;;;19.5;100.0;102390;;;;
2022/08/10 00:52:01;;;;;;;0.3;0.3;;;;;;;19.5;100.0;102390;;;;
2022/08/10 00:53:00;;;;;;;0.3;0.3;;;;;;;19.5;100.0;102380;;;;
2022/08/10 00:54:00;;;;;;;0.3;0.3;;;;;;;19.5;100.0;102380;;;;
2022/08/10 00:55:01;;;;;;;0.3;0.3;;;;;;;19.4;100.0;102390;;;;
2022/08/10 00:56:10;;;;;;;0.3;0.3;;;;;;;19.4;100.0;102390;;;;
2022/08/10 00:57:10;;;;;;;0.3;0.3;;;;;;;19.5;100.0;102390;;;;
2022/08/10 00:58:00;;;;;;;0.3;0.3;;;;;;;19.5;100.0;102390;;;;
2022/08/10 00:59:00;;;;;;;0.3;0.3;;;;;;;19.3;100.0;102380;;;;
2022/08/10 01:00:01;;;;;;;0.3;0.3;;;;;;;19.3;100.0;102380;;;;
2022/08/10 01:01:00;;;;;;;0.3;0.3;;;;;;;19.4;100.0;102380;;;;
2022/08/10 01:02:10;;;;;;;0.3;0.3;;;;;;;19.4;100.0;102380;;;;
2022/08/10 01:03:00;;;;;;;0.3;0.3;;;;;;;19.4;100.0;102380;;;;
2022/08/10 01:04:10;;;;;;;0.3;0.3;;;;;;;19.4;100.0;102380;;;;
2022/08/10 01:05:04;;;;;;;0.3;0.3;;;;;;;19.4;100.0;102380;;;;
2022/08/10 01:06:13;;;;;;;0.3;0.3;;;;;;;19.4;100.0;102380;;;;
2022/08/10 01:07:03;;;;;;;0.3;0.3;;;;;;;19.3;100.0;102380;;;;
2022/08/10 01:08:07;;;;;;;0.3;0.3;;;;;;;19.3;100.0;102380;;;;
2022/08/10 01:09:05;;;;;;;0.3;0.3;;;;;;;19.2;100.0;102380;;;;
2022/08/10 01:10:11;;;;;;;0.3;0.3;;;;;;;19.2;100.0;102380;;;;
2022/08/10 01:11:07;;;;;;;0.3;0.3;;;;;;;19.1;100.0;102380;;;;
2022/08/10 01:12:11;;;;;;;0.3;0.3;;;;;;;19.1;100.0;102380;;;;
2022/08/10 01:13:08;;;;;;;0.3;0.3;;;;;;;19.1;100.0;102380;;;;
2022/08/10 01:14:06;;;;;;;0.3;0.3;;;;;;;19.1;100.0;102380;;;;
2022/08/10 01:15:10;;;;;;;0.3;0.3;;;;;;;19.2;100.0;102380;;;;
2022/08/10 01:16:13;;;;;;;0.2;0.2;;;;;;;19.2;100.0;102380;;;;
2022/08/10 01:17:05;;;;;;;0.2;0.2;;;;;;;19.1;100.0;102380;;;;
2022/08/10 01:18:10;;;;;;;0.2;0.2;;;;;;;19.1;100.0;102380;;;;
2022/08/10 01:19:06;;;;;;;0.2;0.2;;;;;;;19.0;100.0;102380;;;;
2022/08/10 01:20:07;;;;;;;0.2;0.2;;;;;;;19.0;100.0;102380;;;;
2022/08/10 01:21:10;;;;;;;0.2;0.2;;;;;;;18.9;100.0;102380;;;;
2022/08/10 01:22:10;;;;;;;0.2;0.2;;;;;;;18.9;100.0;102380;;;;
2022/08/10 01:23:00;;;;;;;0.2;0.2;;;;;;;19.1;100.0;102380;;;;
2022/08/10 01:24:00;;;;;;;0.2;0.2;;;;;;;19.1;100.0;102380;;;;
2022/08/10 01:25:10;;;;;;;0.2;0.2;;;;;;;19.2;100.0;102380;;;;
2022/08/10 01:26:20;;;;;;;0.2;0.2;;;;;;;19.2;100.0;102380;;;;
2022/08/10 01:27:10;;;;;;;0.2;0.2;;;;;;;19.1;100.0;102380;;;;
2022/08/10 01:28:07;;;;;;;0.2;0.2;;;;;;;19.1;100.0;102380;;;;
2022/08/10 01:29:09;;;;;;;0.2;0.2;;;;;;;18.9;100.0;102370;;;;
2022/08/10 01:30:01;;;;;;;0.2;0.2;;;;;;;18.9;100.0;102370;;;;
2022/08/10 01:31:01;;;;;;;0.2;0.2;;;;;;;19.0;100.0;102370;;;;
2022/08/10 01:32:02;;;;;;;0.2;0.2;;;;;;;19.0;100.0;102370;;;;
2022/08/10 01:33:04;;;;;;;0.2;0.2;;;;;;;18.9;100.0;102370;;;;
2022/08/10 01:34:02;;;;;;;0.2;0.2;;;;;;;18.9;100.0;102370;;;;
2022/08/10 01:35:05;;;;;;;0.2;0.2;;;;;;;19.0;100.0;102370;;;;
2022/08/10 01:36:01;;;;;;;0.2;0.2;;;;;;;19.0;100.0;102370;;;;
2022/08/10 01:37:02;;;;;;;0.2;0.2;;;;;;;19.0;100.0;102360;;;;
2022/08/10 01:38:04;;;;;;;0.2;0.2;;;;;;;19.0;100.0;102360;;;;
2022/08/10 01:39:03;;;;;;;0.2;0.2;;;;;;;18.9;100.0;102360;;;;
2022/08/10 01:40:02;;;;;;;0.2;0.2;;;;;;;18.9;100.0;102360;;;;
2022/08/10 01:41:00;;;;;;;0.2;0.2;;;;;;;19.0;100.0;102370;;;;
2022/08/10 01:42:02;;;;;;;0.2;0.2;;;;;;;19.0;100.0;102370;;;;
2022/08/10 01:43:09;;;;;;;0.2;0.2;;;;;;;19.0;100.0;102370;;;;
2022/08/10 01:44:09;;;;;;;0.2;0.2;;;;;;;19.0;100.0;102370;;;;
2022/08/10 01:45:03;;;;;;;0.2;0.2;;;;;;;18.9;100.0;102360;;;;
2022/08/10 01:46:00;;;;;;;0.2;0.2;;;;;;;18.9;100.0;102360;;;;
2022/08/10 01:49:01;;;;;;;0.2;0.2;;;;;;;18.8;100.0;102370;;;;
2022/08/10 01:50:04;;;;;;;0.2;0.2;;;;;;;18.8;100.0;102370;;;;
2022/08/10 01:51:01;;;;;;;0.2;0.2;;;;;;;18.8;100.0;102370;;;;
2022/08/10 01:52:02;;;;;;;0.2;0.2;;;;;;;18.8;100.0;102370;;;;
2022/08/10 01:53:06;;;;;;;0.2;0.2;;;;;;;18.8;100.0;102370;;;;
2022/08/10 01:54:02;;;;;;;0.2;0.2;;;;;;;18.8;100.0;102370;;;;
2022/08/10 01:55:00;;;;;;;0.2;0.2;;;;;;;18.9;100.0;102370;;;;
2022/08/10 01:56:00;;;;;;;0.2;0.2;;;;;;;18.9;100.0;102370;;;;
2022/08/10 01:57:01;;;;;;;0.2;0.2;;;;;;;18.9;100.0;102370;;;;
2022/08/10 01:58:02;;;;;;;0.2;0.2;;;;;;;18.9;100.0;102370;;;;
2022/08/10 01:59:06;;;;;;;0.2;0.2;;;;;;;18.8;100.0;102370;;;;
2022/08/10 02:00:03;;;;;;;0.2;0.2;;;;;;;18.8;100.0;102370;;;;
2022/08/10 02:01:00;;;;;;;0.2;0.2;;;;;;;18.9;100.0;102370;;;;
2022/08/10 02:02:02;;;;;;;0.2;0.2;;;;;;;18.9;100.0;102370;;;;
2022/08/10 02:03:00;;;;;;;0.2;0.2;;;;;;;18.9;100.0;102360;;;;
2022/08/10 02:04:05;;;;;;;0.2;0.2;;;;;;;18.9;100.0;102360;;;;
2022/08/10 02:05:01;;;;;;;0.2;0.2;;;;;;;18.9;100.0;102360;;;;
2022/08/10 02:06:01;;;;;;;0.2;0.2;;;;;;;18.9;100.0;102360;;;;
2022/08/10 02:07:01;;;;;;;0.2;0.2;;;;;;;18.6;100.0;102370;;;;
2022/08/10 02:08:01;;;;;;;0.2;0.2;;;;;;;18.6;100.0;102370;;;;
2022/08/10 02:09:07;;;;;;;0.2;0.2;;;;;;;18.5;100.0;102370;;;;
2022/08/10 02:10:03;;;;;;;0.2;0.2;;;;;;;18.5;100.0;102370;;;;
2022/08/10 02:11:01;;;;;;;0.2;0.2;;;;;;;18.5;100.0;102370;;;;
2022/08/10 02:12:08;;;;;;;0.2;0.2;;;;;;;18.5;100.0;102370;;;;
2022/08/10 02:13:01;;;;;;;0.2;0.2;;;;;;;18.5;100.0;102370;;;;
2022/08/10 02:14:01;;;;;;;0.2;0.2;;;;;;;18.5;100.0;102370;;;;
2022/08/10 02:15:01;;;;;;;0.2;0.2;;;;;;;18.6;100.0;102360;;;;
2022/08/10 02:16:02;;;;;;;0.2;0.2;;;;;;;18.6;100.0;102360;;;;
2022/08/10 02:17:01;;;;;;;0.4;0.4;;;;;;;18.6;100.0;102370;;;;
2022/08/10 02:18:02;;;;;;;0.4;0.4;;;;;;;18.6;100.0;102370;;;;
2022/08/10 02:19:01;;;;;;;0.4;0.4;;;;;;;18.5;100.0;102370;;;;
2022/08/10 02:20:04;;;;;;;0.4;0.4;;;;;;;18.5;100.0;102370;;;;
2022/08/10 02:21:02;;;;;;;0.4;0.4;;;;;;;18.4;100.0;102370;;;;
2022/08/10 02:22:10;;;;;;;0.4;0.4;;;;;;;18.4;100.0;102370;;;;
2022/08/10 02:23:03;;;;;;;0.4;0.4;;;;;;;18.3;100.0;102370;;;;
2022/08/10 02:24:01;;;;;;;0.4;0.4;;;;;;;18.3;100.0;102370;;;;
2022/08/10 02:25:00;;;;;;;0.4;0.4;;;;;;;18.2;100.0;102370;;;;
2022/08/10 02:26:01;;;;;;;0.4;0.4;;;;;;;18.2;100.0;102370;;;;
2022/08/10 02:27:04;;;;;;;0.4;0.4;;;;;;;18.2;100.0;102360;;;;
2022/08/10 02:28:01;;;;;;;0.4;0.4;;;;;;;18.2;100.0;102360;;;;
2022/08/10 02:29:01;;;;;;;0.4;0.4;;;;;;;18.2;100.0;102370;;;;
2022/08/10 02:30:01;;;;;;;0.4;0.4;;;;;;;18.2;100.0;102370;;;;
2022/08/10 02:31:06;;;;;;;0.4;0.4;;;;;;;18.2;100.0;102370;;;;
2022/08/10 02:32:00;;;;;;;0.4;0.4;;;;;;;18.2;100.0;102370;;;;
2022/08/10 02:33:02;;;;;;;0.4;0.4;;;;;;;18.2;100.0;102370;;;;
2022/08/10 02:34:01;;;;;;;0.4;0.4;;;;;;;18.2;100.0;102370;;;;
2022/08/10 02:35:02;;;;;;;0.4;0.4;;;;;;;18.1;100.0;102370;;;;
2022/08/10 02:36:03;;;;;;;0.2;0.2;;;;;;;18.1;100.0;102370;;;;
2022/08/10 02:37:11;;;;;;;0.2;0.2;;;;;;;18.2;100.0;102370;;;;
2022/08/10 02:38:02;;;;;;;0.2;0.2;;;;;;;18.2;100.0;102370;;;;
2022/08/10 02:39:01;;;;;;;0.2;0.2;;;;;;;18.0;100.0;102370;;;;
2022/08/10 02:40:00;;;;;;;0.2;0.2;;;;;;;18.0;100.0;102370;;;;
2022/08/10 02:41:13;;;;;;;0.2;0.2;;;;;;;18.0;100.0;102360;;;;
2022/08/10 02:42:12;;;;;;;0.2;0.2;;;;;;;18.0;100.0;102360;;;;
2022/08/10 02:43:14;;;;;;;0.2;0.2;;;;;;;18.1;100.0;102360;;;;
2022/08/10 02:44:14;;;;;;;0.2;0.2;;;;;;;18.1;100.0;102360;;;;
2022/08/10 02:45:15;;;;;;;0.2;0.2;;;;;;;18.0;100.0;102370;;;;
2022/08/10 02:46:03;;;;;;;0.2;0.2;;;;;;;18.0;100.0;102370;;;;
2022/08/10 02:47:10;;;;;;;0.2;0.2;;;;;;;18.0;100.0;102360;;;;
2022/08/10 02:48:05;;;;;;;0.2;0.2;;;;;;;18.0;100.0;102360;;;;
2022/08/10 02:49:01;;;;;;;0.2;0.2;;;;;;;17.9;100.0;102370;;;;
2022/08/10 02:50:08;;;;;;;0.2;0.2;;;;;;;17.9;100.0;102370;;;;
2022/08/10 02:51:04;;;;;;;0.2;0.2;;;;;;;18.0;100.0;102360;;;;
2022/08/10 02:52:08;;;;;;;0.2;0.2;;;;;;;18.0;100.0;102360;;;;
2022/08/10 02:53:20;;;;;;;0.2;0.2;;;;;;;18.0;100.0;102360;;;;
2022/08/10 02:54:02;;;;;;;0.2;0.2;;;;;;;18.0;100.0;102360;;;;
2022/08/10 02:55:14;;;;;;;0.2;0.2;;;;;;;18.0;100.0;102350;;;;
2022/08/10 02:56:00;;;;;;;0.2;0.2;;;;;;;18.0;100.0;102350;;;;
2022/08/10 02:57:04;;;;;;;0.2;0.2;;;;;;;18.0;100.0;102350;;;;
2022/08/10 02:58:15;;;;;;;0.2;0.2;;;;;;;18.0;100.0;102350;;;;
2022/08/10 02:59:04;;;;;;;0.2;0.2;;;;;;;18.0;100.0;102350;;;;
2022/08/10 03:00:01;;;;;;;0.2;0.2;;;;;;;18.0;100.0;102350;;;;
2022/08/10 03:01:03;;;;;;;0.2;0.2;;;;;;;18.1;100.0;102350;;;;
2022/08/10 03:02:03;;;;;;;0.2;0.2;;;;;;;18.1;100.0;102350;;;;
2022/08/10 03:03:01;;;;;;;0.2;0.2;;;;;;;17.9;100.0;102340;;;;
2022/08/10 03:04:03;;;;;;;0.2;0.2;;;;;;;17.9;100.0;102340;;;;
2022/08/10 03:05:01;;;;;;;0.2;0.2;;;;;;;17.9;100.0;102340;;;;
2022/08/10 03:06:02;;;;;;;0.2;0.2;;;;;;;17.9;100.0;102340;;;;
2022/08/10 03:07:02;;;;;;;0.2;0.2;;;;;;;17.9;100.0;102350;;;;
2022/08/10 03:08:03;;;;;;;0.2;0.2;;;;;;;17.9;100.0;102350;;;;
2022/08/10 03:09:01;;;;;;;0.2;0.2;;;;;;;17.8;100.0;102350;;;;
2022/08/10 03:10:04;;;;;;;0.2;0.2;;;;;;;17.8;100.0;102350;;;;
2022/08/10 03:11:02;;;;;;;0.2;0.2;;;;;;;17.8;100.0;102340;;;;
2022/08/10 03:12:11;;;;;;;0.2;0.2;;;;;;;17.8;100.0;102340;;;;
2022/08/10 03:13:03;;;;;;;0.2;0.2;;;;;;;18.0;100.0;102350;;;;
2022/08/10 03:14:00;;;;;;;0.2;0.2;;;;;;;18.0;100.0;102350;;;;
2022/08/10 03:15:00;;;;;;;0.2;0.2;;;;;;;17.9;100.0;102340;;;;
2022/08/10 03:16:01;;;;;;;0.3;0.3;;;;;;;17.9;100.0;102340;;;;
2022/08/10 03:17:01;;;;;;;0.3;0.3;;;;;;;17.9;100.0;102340;;;;
2022/08/10 03:18:00;;;;;;;0.3;0.3;;;;;;;17.9;100.0;102340;;;;
2022/08/10 03:19:02;;;;;;;0.3;0.3;;;;;;;17.9;100.0;102340;;;;
2022/08/10 03:20:10;;;;;;;0.3;0.3;;;;;;;17.9;100.0;102340;;;;
2022/08/10 03:21:00;;;;;;;0.3;0.3;;;;;;;17.9;100.0;102340;;;;
2022/08/10 03:22:01;;;;;;;0.3;0.3;;;;;;;17.9;100.0;102340;;;;
2022/08/10 03:23:02;;;;;;;0.3;0.3;;;;;;;17.9;100.0;102340;;;;
2022/08/10 03:24:01;;;;;;;0.3;0.3;;;;;;;17.9;100.0;102340;;;;
2022/08/10 03:25:00;;;;;;;0.3;0.3;;;;;;;17.8;100.0;102340;;;;
2022/08/10 03:26:00;;;;;;;0.3;0.3;;;;;;;17.8;100.0;102340;;;;
2022/08/10 03:27:00;;;;;;;0.3;0.3;;;;;;;17.8;100.0;102340;;;;
2022/08/10 03:28:00;;;;;;;0.3;0.3;;;;;;;17.8;100.0;102340;;;;
2022/08/10 03:29:02;;;;;;;0.3;0.3;;;;;;;17.9;100.0;102340;;;;
2022/08/10 03:30:10;;;;;;;0.3;0.3;;;;;;;17.9;100.0;102340;;;;
2022/08/10 03:31:00;;;;;;;0.3;0.3;;;;;;;17.7;100.0;102340;;;;
2022/08/10 03:32:02;;;;;;;0.3;0.3;;;;;;;17.7;100.0;102340;;;;
2022/08/10 03:33:03;;;;;;;0.3;0.3;;;;;;;17.8;100.0;102340;;;;
2022/08/10 03:34:00;;;;;;;0.3;0.3;;;;;;;17.8;100.0;102340;;;;
2022/08/10 03:35:00;;;;;;;0.3;0.3;;;;;;;17.8;100.0;102340;;;;
2022/08/10 03:36:10;;;;;;;0.2;0.2;;;;;;;17.8;100.0;102340;;;;
2022/08/10 03:37:00;;;;;;;0.2;0.2;;;;;;;17.7;100.0;102330;;;;
2022/08/10 03:38:00;;;;;;;0.2;0.2;;;;;;;17.7;100.0;102330;;;;
2022/08/10 03:39:00;;;;;;;0.2;0.2;;;;;;;17.5;100.0;102340;;;;
2022/08/10 03:40:00;;;;;;;0.2;0.2;;;;;;;17.5;100.0;102340;;;;
2022/08/10 03:41:01;;;;;;;0.2;0.2;;;;;;;17.6;100.0;102330;;;;
2022/08/10 03:42:02;;;;;;;0.2;0.2;;;;;;;17.6;100.0;102330;;;;
2022/08/10 03:43:01;;;;;;;0.2;0.2;;;;;;;17.5;100.0;102340;;;;
2022/08/10 03:44:00;;;;;;;0.2;0.2;;;;;;;17.5;100.0;102340;;;;
2022/08/10 03:45:01;;;;;;;0.2;0.2;;;;;;;17.5;100.0;102340;;;;
2022/08/10 03:46:02;;;;;;;0.2;0.2;;;;;;;17.5;100.0;102340;;;;
2022/08/10 03:47:01;;;;;;;0.2;0.2;;;;;;;17.5;100.0;102340;;;;
2022/08/10 03:48:01;;;;;;;0.2;0.2;;;;;;;17.5;100.0;102340;;;;
2022/08/10 03:49:01;;;;;;;0.2;0.2;;;;;;;17.4;100.0;102340;;;;
2022/08/10 03:50:11;;;;;;;0.2;0.2;;;;;;;17.4;100.0;102340;;;;
2022/08/10 03:51:00;;;;;;;0.2;0.2;;;;;;;17.3;100.0;102340;;;;
2022/08/10 03:52:00;;;;;;;0.2;0.2;;;;;;;17.3;100.0;102340;;;;
2022/08/10 03:53:00;;;;;;;0.2;0.2;;;;;;;17.4;100.0;102340;;;;
2022/08/10 03:54:06;;;;;;;0.2;0.2;;;;;;;17.4;100.0;102340;;;;
2022/08/10 03:55:01;;;;;;;0.2;0.2;;;;;;;17.4;100.0;102340;;;;
2022/08/10 03:56:10;;;;;;;0.9;0.9;;;;;;;17.4;100.0;102340;;;;
2022/08/10 03:57:00;;;;;;;0.9;0.9;;;;;;;17.4;100.0;102340;;;;
2022/08/10 03:58:00;;;;;;;0.9;0.9;;;;;;;17.4;100.0;102340;;;;
2022/08/10 03:59:00;;;;;;;0.9;0.9;;;;;;;17.3;100.0;102350;;;;
2022/08/10 04:00:00;;;;;;;0.9;0.9;;;;;;;17.3;100.0;102350;;;;
2022/08/10 04:01:00;;;;;;;0.9;0.9;;;;;;;17.4;100.0;102340;;;;
2022/08/10 04:02:10;;;;;;;0.9;0.9;;;;;;;17.4;100.0;102340;;;;
2022/08/10 04:03:01;;;;;;;0.9;0.9;;;;;;;17.4;100.0;102340;;;;
2022/08/10 04:04:10;;;;;;;0.9;0.9;;;;;;;17.4;100.0;102340;;;;
2022/08/10 04:05:00;;;;;;;0.9;0.9;;;;;;;17.4;100.0;102340;;;;
2022/08/10 04:06:00;;;;;;;0.9;0.9;;;;;;;17.4;100.0;102340;;;;
2022/08/10 04:07:01;;;;;;;0.9;0.9;;;;;;;17.4;100.0;102340;;;;
2022/08/10 04:08:01;;;;;;;0.9;0.9;;;;;;;17.4;100.0;102340;;;;
2022/08/10 04:09:01;;;;;;;0.9;0.9;;;;;;;17.3;100.0;102340;;;;
2022/08/10 04:10:00;;;;;;;0.9;0.9;;;;;;;17.3;100.0;102340;;;;
2022/08/10 04:11:00;;;;;;;0.9;0.9;;;;;;;17.3;100.0;102340;;;;
2022/08/10 04:12:00;;;;;;;0.9;0.9;;;;;;;17.3;100.0;102340;;;;
2022/08/10 04:13:02;;;;;;;0.9;0.9;;;;;;;17.3;100.0;102340;;;;
2022/08/10 04:14:00;;;;;;;0.9;0.9;;;;;;;17.3;100.0;102340;;;;
2022/08/10 04:15:00;;;;;;;0.9;0.9;;;;;;;17.2;100.0;102340;;;;
2022/08/10 04:16:07;;;;;;;0.4;0.4;;;;;;;17.2;100.0;102340;;;;
2022/08/10 04:17:00;;;;;;;0.4;0.4;;;;;;;17.2;100.0;102340;;;;
2022/08/10 04:18:06;;;;;;;0.4;0.4;;;;;;;17.2;100.0;102340;;;;
2022/08/10 04:19:00;;;;;;;0.4;0.4;;;;;;;17.2;100.0;102340;;;;
2022/08/10 04:20:00;;;;;;;0.4;0.4;;;;;;;17.2;100.0;102340;;;;
2022/08/10 04:21:02;;;;;;;0.4;0.4;;;;;;;17.0;100.0;102340;;;;
2022/08/10 04:22:03;;;;;;;0.4;0.4;;;;;;;17.0;100.0;102340;;;;
2022/08/10 04:23:02;;;;;;;0.4;0.4;;;;;;;17.2;100.0;102340;;;;
2022/08/10 04:24:02;;;;;;;0.4;0.4;;;;;;;17.2;100.0;102340;;;;
2022/08/10 04:25:01;;;;;;;0.4;0.4;;;;;;;17.2;100.0;102340;;;;
2022/08/10 04:26:00;;;;;;;0.4;0.4;;;;;;;17.2;100.0;102340;;;;
2022/08/10 04:27:01;;;;;;;0.4;0.4;;;;;;;17.1;100.0;102340;;;;
2022/08/10 04:28:00;;;;;;;0.4;0.4;;;;;;;17.1;100.0;102340;;;;
2022/08/10 04:29:00;;;;;;;0.4;0.4;;;;;;;17.0;100.0;102340;;;;
2022/08/10 04:30:00;;;;;;;0.4;0.4;;;;;;;17.0;100.0;102340;;;;
2022/08/10 04:31:00;;;;;;;0.4;0.4;;;;;;;17.0;100.0;102340;;;;
2022/08/10 04:32:02;;;;;;;0.4;0.4;;;;;;;17.0;100.0;102340;;;;
2022/08/10 04:33:01;;;;;;;0.4;0.4;;;;;;;17.0;100.0;102340;;;;
2022/08/10 04:34:08;;;;;;;0.4;0.4;;;;;;;17.0;100.0;102340;;;;
2022/08/10 04:35:02;;;;;;;0.4;0.4;;;;;;;17.0;100.0;102340;;;;
2022/08/10 04:36:02;;;;;;;0.3;0.3;;;;;;;17.0;100.0;102340;;;;
2022/08/10 04:37:08;;;;;;;0.3;0.3;;;;;;;17.2;100.0;102340;;;;
2022/08/10 04:38:02;;;;;;;0.3;0.3;;;;;;;17.2;100.0;102340;;;;
2022/08/10 04:39:00;;;;;;;0.3;0.3;;;;;;;17.1;100.0;102340;;;;
2022/08/10 04:40:00;;;;;;;0.3;0.3;;;;;;;17.1;100.0;102340;;;;
2022/08/10 04:41:00;;;;;;;0.3;0.3;;;;;;;17.2;100.0;102340;;;;
2022/08/10 04:42:00;;;;;;;0.3;0.3;;;;;;;17.2;100.0;102340;;;;
2022/08/10 04:43:07;;;;;;;0.3;0.3;;;;;;;17.1;100.0;102340;;;;
2022/08/10 04:44:00;;;;;;;0.3;0.3;;;;;;;17.1;100.0;102340;;;;
2022/08/10 04:45:06;;;;;;;0.3;0.3;;;;;;;17.1;100.0;102340;;;;
2022/08/10 04:46:00;;;;;;;0.3;0.3;;;;;;;17.1;100.0;102340;;;;
2022/08/10 04:47:00;;;;;;;0.3;0.3;;;;;;;17.0;100.0;102340;;;;
2022/08/10 04:48:03;;;;;;;0.3;0.3;;;;;;;17.0;100.0;102340;;;;
2022/08/10 04:49:02;;;;;;;0.3;0.3;;;;;;;16.9;100.0;102340;;;;
2022/08/10 04:50:02;;;;;;;0.3;0.3;;;;;;;16.9;100.0;102340;;;;
2022/08/10 04:51:00;;;;;;;0.3;0.3;;;;;;;17.0;100.0;102340;;;;
2022/08/10 04:52:00;;;;;;;0.3;0.3;;;;;;;17.0;100.0;102340;;;;
2022/08/10 04:53:00;;;;;;;0.3;0.3;;;;;;;17.2;100.0;102340;;;;
2022/08/10 04:54:06;;;;;;;0.3;0.3;;;;;;;17.2;100.0;102340;;;;
2022/08/10 04:55:00;;;;;;;0.3;0.3;;;;;;;17.0;100.0;102340;;;;
2022/08/10 04:56:00;;;;;;;0.4;0.4;;;;;;;17.0;100.0;102340;;;;
2022/08/10 04:57:00;;;;;;;0.4;0.4;;;;;;;17.1;100.0;102340;;;;
2022/08/10 04:58:00;;;;;;;0.4;0.4;;;;;;;17.1;100.0;102340;;;;
2022/08/10 04:59:00;;;;;;;0.4;0.4;;;;;;;17.2;100.0;102340;;;;
2022/08/10 05:00:00;;;;;;;0.4;0.4;;;;;;;17.2;100.0;102340;;;;
2022/08/10 05:01:00;;;;;;;0.4;0.4;;;;;;;17.1;100.0;102340;;;;
2022/08/10 05:02:10;;;;;;;0.4;0.4;;;;;;;17.1;100.0;102340;;;;
2022/08/10 05:03:00;;;;;;;0.4;0.4;;;;;;;17.2;100.0;102340;;;;
2022/08/10 05:04:10;;;;;;;0.4;0.4;;;;;;;17.2;100.0;102340;;;;
2022/08/10 05:05:00;;;;;;;0.4;0.4;;;;;;;17.0;100.0;102340;;;;
2022/08/10 05:06:01;;;;;;;0.4;0.4;;;;;;;17.0;100.0;102340;;;;
2022/08/10 05:07:00;;;;;;;0.4;0.4;;;;;;;17.1;100.0;102340;;;;
2022/08/10 05:08:00;;;;;;;0.4;0.4;;;;;;;17.1;100.0;102340;;;;
2022/08/10 05:09:00;;;;;;;0.4;0.4;;;;;;;17.2;100.0;102330;;;;
2022/08/10 05:10:05;;;;;;;0.4;0.4;;;;;;;17.2;100.0;102330;;;;
2022/08/10 05:11:00;;;;;;;0.4;0.4;;;;;;;17.3;100.0;102340;;;;
2022/08/10 05:12:00;;;;;;;0.4;0.4;;;;;;;17.3;100.0;102340;;;;
2022/08/10 05:13:00;;;;;;;0.4;0.4;;;;;;;17.2;100.0;102340;;;;
2022/08/10 05:14:00;;;;;;;0.4;0.4;;;;;;;17.2;100.0;102340;;;;
2022/08/10 05:15:00;;;;;;;0.4;0.4;;;;;;;17.3;100.0;102340;;;;
2022/08/10 05:16:00;;;;;;;0.3;0.3;;;;;;;17.3;100.0;102340;;;;
2022/08/10 05:17:00;;;;;;;0.3;0.3;;;;;;;17.3;100.0;102340;;;;
2022/08/10 05:18:10;;;;;;;0.3;0.3;;;;;;;17.3;100.0;102340;;;;
2022/08/10 05:19:00;;;;;;;0.3;0.3;;;;;;;17.3;100.0;102340;;;;
2022/08/10 05:20:05;;;;;;;0.3;0.3;;;;;;;17.3;100.0;102340;;;;
2022/08/10 05:21:00;;;;;;;0.3;0.3;;;;;;;17.2;100.0;102340;;;;
2022/08/10 05:22:05;;;;;;;0.3;0.3;;;;;;;17.2;100.0;102340;;;;
2022/08/10 05:23:00;;;;;;;0.3;0.3;;;;;;;17.2;100.0;102340;;;;
2022/08/10 05:24:03;;;;;;;0.3;0.3;;;;;;;17.2;100.0;102340;;;;
2022/08/10 05:25:00;;;;;;;0.3;0.3;;;;;;;17.1;100.0;102350;;;;
2022/08/10 05:26:00;;;;;;;0.3;0.3;;;;;;;17.1;100.0;102350;;;;
2022/08/10 05:27:10;;;;;;;0.3;0.3;;;;;;;17.1;100.0;102350;;;;
2022/08/10 05:28:06;;;;;;;0.3;0.3;;;;;;;17.1;100.0;102350;;;;
2022/08/10 05:29:00;;;;;;;0.3;0.3;;;;;;;17.2;100.0;102350;;;;
2022/08/10 05:30:03;;;;;;;0.3;0.3;;;;;;;17.2;100.0;102350;;;;
2022/08/10 05:31:00;;;;;;;0.3;0.3;;;;;;;17.2;100.0;102350;;;;
2022/08/10 05:32:00;;;;;;;0.3;0.3;;;;;;;17.2;100.0;102350;;;;
2022/08/10 05:33:07;;;;;;;0.3;0.3;;;;;;;17.3;100.0;102350;;;;
2022/08/10 05:34:00;;;;;;;0.3;0.3;;;;;;;17.3;100.0;102350;;;;
2022/08/10 05:35:00;;;;;;;0.3;0.3;;;;;;;17.3;100.0;102350;;;;
2022/08/10 05:36:00;;;;;;;0.4;0.4;;;;;;;17.3;100.0;102350;;;;
2022/08/10 05:37:00;;;;;;;0.4;0.4;;;;;;;17.5;100.0;102350;;;;
2022/08/10 05:38:11;;;;;;;0.4;0.4;;;;;;;17.5;100.0;102350;;;;
2022/08/10 05:39:01;;;;;;;0.4;0.4;;;;;;;17.5;100.0;102350;;;;
2022/08/10 05:40:01;;;;;;;0.4;0.4;;;;;;;17.5;100.0;102350;;;;
2022/08/10 05:41:01;;;;;;;0.4;0.4;;;;;;;17.4;100.0;102350;;;;
2022/08/10 05:42:01;;;;;;;0.4;0.4;;;;;;;17.4;100.0;102350;;;;
2022/08/10 05:43:00;;;;;;;0.4;0.4;;;;;;;17.5;100.0;102350;;;;
2022/08/10 05:44:00;;;;;;;0.4;0.4;;;;;;;17.5;100.0;102350;;;;
2022/08/10 05:45:00;;;;;;;0.4;0.4;;;;;;;17.6;100.0;102350;;;;
2022/08/10 05:46:10;;;;;;;0.4;0.4;;;;;;;17.6;100.0;102350;;;;
2022/08/10 05:47:00;;;;;;;0.4;0.4;;;;;;;17.5;100.0;102350;;;;
2022/08/10 05:48:10;;;;;;;0.4;0.4;;;;;;;17.5;100.0;102350;;;;
2022/08/10 05:49:02;;;;;;;0.4;0.4;;;;;;;17.6;100.0;102360;;;;
2022/08/10 05:50:00;;;;;;;0.4;0.4;;;;;;;17.6;100.0;102360;;;;
2022/08/10 05:51:00;;;;;;;0.4;0.4;;;;;;;17.6;100.0;102350;;;;
2022/08/10 05:52:00;;;;;;;0.4;0.4;;;;;;;17.6;100.0;102350;;;;
2022/08/10 05:53:10;;;;;;;0.4;0.4;;;;;;;17.7;100.0;102360;;;;
2022/08/10 05:54:13;;;;;;;0.4;0.4;;;;;;;17.7;100.0;102360;;;;
2022/08/10 05:55:03;;;;;;;0.4;0.4;;;;;;;17.8;100.0;102360;;;;
2022/08/10 05:56:02;;;;;;;0.3;0.3;;;;;;;17.8;100.0;102360;;;;
2022/08/10 05:57:00;;;;;;;0.3;0.3;;;;;;;17.9;100.0;102360;;;;
2022/08/10 05:58:00;;;;;;;0.3;0.3;;;;;;;17.9;100.0;102360;;;;
2022/08/10 05:59:00;;;;;;;0.3;0.3;;;;;;;17.9;100.0;102360;;;;
2022/08/10 06:00:13;;;;;;;0.3;0.3;;;;;;;17.9;100.0;102360;;;;
2022/08/10 06:01:01;;;;;;;0.3;0.3;;;;;;;18.0;100.0;102360;;;;
2022/08/10 06:02:13;;;;;;;0.3;0.3;;;;;;;18.0;100.0;102360;;;;
2022/08/10 06:03:02;;;;;;;0.3;0.3;;;;;;;18.0;100.0;102360;;;;
2022/08/10 06:04:00;;;;;;;0.3;0.3;;;;;;;18.0;100.0;102360;;;;
2022/08/10 06:05:03;;;;;;;0.3;0.3;;;;;;;18.1;100.0;102360;;;;
2022/08/10 06:06:01;;;;;;;0.3;0.3;;;;;;;18.1;100.0;102360;;;;
2022/08/10 06:07:00;;;;;;;0.3;0.3;;;;;;;18.1;100.0;102360;;;;
2022/08/10 06:08:04;;;;;;;0.3;0.3;;;;;;;18.1;100.0;102360;;;;
2022/08/10 06:09:01;;;;;;;0.3;0.3;;;;;;;18.2;100.0;102360;;;;
2022/08/10 06:10:01;;;;;;;0.3;0.3;;;;;;;18.2;100.0;102360;;;;
2022/08/10 06:11:11;;;;;;;0.3;0.3;;;;;;;18.2;100.0;102350;;;;
2022/08/10 06:12:10;;;;;;;0.3;0.3;;;;;;;18.2;100.0;102350;;;;
2022/08/10 06:15:09;;;;;;;0.3;0.3;;;;;;;18.2;100.0;102360;;;;
2022/08/10 06:16:02;;;;;;;0.3;0.3;;;;;;;18.2;100.0;102360;;;;
2022/08/10 06:17:01;;;;;;;0.3;0.3;;;;;;;18.4;100.0;102360;;;;
2022/08/10 06:18:02;;;;;;;0.3;0.3;;;;;;;18.4;100.0;102360;;;;
2022/08/10 06:19:00;;;;;;;0.3;0.3;;;;;;;18.5;100.0;102360;;;;
2022/08/10 06:20:00;;;;;;;0.3;0.3;;;;;;;18.5;100.0;102360;;;;
2022/08/10 06:21:00;;;;;;;0.3;0.3;;;;;;;18.6;100.0;102360;;;;
2022/08/10 06:22:01;;;;;;;0.3;0.3;;;;;;;18.6;100.0;102360;;;;
2022/08/10 06:23:01;;;;;;;0.3;0.3;;;;;;;18.6;100.0;102360;;;;
2022/08/10 06:24:00;;;;;;;0.3;0.3;;;;;;;18.6;100.0;102360;;;;
2022/08/10 06:25:10;;;;;;;0.3;0.3;;;;;;;18.7;100.0;102360;;;;
2022/08/10 06:26:10;;;;;;;0.3;0.3;;;;;;;18.7;100.0;102360;;;;
2022/08/10 06:27:00;;;;;;;0.3;0.3;;;;;;;18.8;100.0;102350;;;;